Terminal Aerodrome Forecast
Issued by NWS

Home | Current Version | Previous Version | Text Only | Print | Product List | Glossary On
Versions: 1 2 3 4 5 6 7 8 9 10 11
000
FTUS44 KBMX 121721
TAFTCL
TAF
KTCL 121721Z 1218/1318 32012G19KT P6SM SCT050
     FM122300 32007KT P6SM SKC
     FM130500 00000KT P6SM SKC
     FM131600 21008KT P6SM SKC=

USA.gov is the U.S. government's official web portal to all federal, state and local government web resources and services.